sensor_id;sensor_type;location;lat;lon;timestamp;temperature;humidity
29207;DHT22;16247;50.840;4.382;2023-06-26T04:51:57;19.30;99.90
29207;DHT22;16247;50.840;4.382;2023-06-26T04:54:25;19.60;99.90
29207;DHT22;16247;50.840;4.382;2023-06-26T04:56:51;19.90;99.90
29207;DHT22;16247;50.840;4.382;2023-06-26T04:59:17;19.80;99.90
29207;DHT22;16247;50.840;4.382;2023-06-26T05:01:43;19.80;99.90
29207;DHT22;16247;50.840;4.382;2023-06-26T05:04:14;19.70;99.90
29207;DHT22;16247;50.840;4.382;2023-06-26T05:06:40;19.80;99.90
29207;DHT22;16247;50.840;4.382;2023-06-26T05:09:07;19.90;99.90
29207;DHT22;16247;50.840;4.382;2023-06-26T05:11:33;20.00;99.90
29207;DHT22;16247;50.840;4.382;2023-06-26T05:13:58;20.10;99.90
29207;DHT22;16247;50.840;4.382;2023-06-26T05:16:24;20.10;99.90
29207;DHT22;16247;50.840;4.382;2023-06-26T05:18:50;19.90;99.90
29207;DHT22;16247;50.840;4.382;2023-06-26T05:21:16;20.10;99.90
29207;DHT22;16247;50.840;4.382;2023-06-26T05:23:42;20.30;99.90
29207;DHT22;16247;50.840;4.382;2023-06-26T05:26:10;20.00;99.90
29207;DHT22;16247;50.840;4.382;2023-06-26T05:28:37;19.80;99.90
29207;DHT22;16247;50.840;4.382;2023-06-26T05:31:03;20.10;99.90
29207;DHT22;16247;50.840;4.382;2023-06-26T05:33:31;20.00;99.90
29207;DHT22;16247;50.840;4.382;2023-06-26T05:36:00;19.90;99.90
29207;DHT22;16247;50.840;4.382;2023-06-26T05:38:27;19.90;99.90
29207;DHT22;16247;50.840;4.382;2023-06-26T05:40:53;19.50;99.90
29207;DHT22;16247;50.840;4.382;2023-06-26T05:43:19;19.20;99.90
29207;DHT22;16247;50.840;4.382;2023-06-26T05:45:48;19.40;99.90
29207;DHT22;16247;50.840;4.382;2023-06-26T05:48:14;19.70;99.90
29207;DHT22;16247;50.840;4.382;2023-06-26T05:50:41;19.50;99.90
29207;DHT22;16247;50.840;4.382;2023-06-26T05:53:08;19.40;99.90
29207;DHT22;16247;50.840;4.382;2023-06-26T05:55:34;19.70;99.90
29207;DHT22;16247;50.840;4.382;2023-06-26T05:58:02;20.10;99.90
29207;DHT22;16247;50.840;4.382;2023-06-26T06:00:31;20.50;99.90
29207;DHT22;16247;50.840;4.382;2023-06-26T06:02:57;20.50;99.90
29207;DHT22;16247;50.840;4.382;2023-06-26T06:05:22;20.40;99.90
29207;DHT22;16247;50.840;4.382;2023-06-26T06:07:49;20.30;99.90
29207;DHT22;16247;50.840;4.382;2023-06-26T06:10:14;20.10;99.90
29207;DHT22;16247;50.840;4.382;2023-06-26T06:12:40;20.00;99.90
29207;DHT22;16247;50.840;4.382;2023-06-26T06:15:06;19.80;99.90
29207;DHT22;16247;50.840;4.382;2023-06-26T06:17:32;20.00;99.90
29207;DHT22;16247;50.840;4.382;2023-06-26T06:19:58;20.40;99.90
29207;DHT22;16247;50.840;4.382;2023-06-26T06:22:23;20.20;99.90
29207;DHT22;16247;50.840;4.382;2023-06-26T06:24:50;20.30;99.90
29207;DHT22;16247;50.840;4.382;2023-06-26T06:27:16;20.70;99.90
29207;DHT22;16247;50.840;4.382;2023-06-26T06:29:42;20.80;99.90
29207;DHT22;16247;50.840;4.382;2023-06-26T06:32:07;20.80;99.90
29207;DHT22;16247;50.840;4.382;2023-06-26T06:34:33;21.00;99.90
29207;DHT22;16247;50.840;4.382;2023-06-26T06:37:00;21.40;99.90
29207;DHT22;16247;50.840;4.382;2023-06-26T06:39:26;21.50;99.90
29207;DHT22;16247;50.840;4.382;2023-06-26T06:41:53;21.30;99.90
29207;DHT22;16247;50.840;4.382;2023-06-26T06:44:18;21.20;99.90
29207;DHT22;16247;50.840;4.382;2023-06-26T06:46:44;21.10;99.90
29207;DHT22;16247;50.840;4.382;2023-06-26T06:49:09;21.10;99.90
29207;DHT22;16247;50.840;4.382;2023-06-26T06:51:35;21.30;99.90
29207;DHT22;16247;50.840;4.382;2023-06-26T06:54:01;21.40;99.90
29207;DHT22;16247;50.840;4.382;2023-06-26T06:56:28;21.70;99.90
29207;DHT22;16247;50.840;4.382;2023-06-26T06:58:54;21.30;99.90
29207;DHT22;16247;50.840;4.382;2023-06-26T07:01:19;21.30;99.90
29207;DHT22;16247;50.840;4.382;2023-06-26T07:03:45;21.00;99.90
29207;DHT22;16247;50.840;4.382;2023-06-26T07:06:11;20.70;99.90
29207;DHT22;16247;50.840;4.382;2023-06-26T07:08:36;21.10;99.90
29207;DHT22;16247;50.840;4.382;2023-06-26T07:11:02;21.20;99.90
29207;DHT22;16247;50.840;4.382;2023-06-26T07:13:28;21.20;99.90
29207;DHT22;16247;50.840;4.382;2023-06-26T07:15:54;21.00;99.90
29207;DHT22;16247;50.840;4.382;2023-06-26T07:18:19;21.00;99.90
29207;DHT22;16247;50.840;4.382;2023-06-26T07:20:45;21.00;99.90
29207;DHT22;16247;50.840;4.382;2023-06-26T07:23:10;21.20;99.90
29207;DHT22;16247;50.840;4.382;2023-06-26T07:25:36;21.40;99.90
29207;DHT22;16247;50.840;4.382;2023-06-26T07:28:02;21.50;99.90
29207;DHT22;16247;50.840;4.382;2023-06-26T07:30:30;21.60;99.90
29207;DHT22;16247;50.840;4.382;2023-06-26T07:32:59;21.70;99.90
29207;DHT22;16247;50.840;4.382;2023-06-26T07:35:25;21.40;99.90
29207;DHT22;16247;50.840;4.382;2023-06-26T07:37:52;21.80;99.90
29207;DHT22;16247;50.840;4.382;2023-06-26T07:40:18;22.00;99.90
29207;DHT22;16247;50.840;4.382;2023-06-26T07:42:44;22.30;99.90
29207;DHT22;16247;50.840;4.382;2023-06-26T07:45:10;22.10;99.90
29207;DHT22;16247;50.840;4.382;2023-06-26T07:47:38;21.80;99.90
29207;DHT22;16247;50.840;4.382;2023-06-26T07:50:04;21.30;99.90
29207;DHT22;16247;50.840;4.382;2023-06-26T07:52:29;21.00;99.90
29207;DHT22;16247;50.840;4.382;2023-06-26T07:54:56;21.40;99.90
29207;DHT22;16247;50.840;4.382;2023-06-26T07:57:22;21.80;99.90
29207;DHT22;16247;50.840;4.382;2023-06-26T07:59:48;22.00;99.90
29207;DHT22;16247;50.840;4.382;2023-06-26T08:02:13;21.90;99.90
29207;DHT22;16247;50.840;4.382;2023-06-26T08:04:39;22.10;99.90
29207;DHT22;16247;50.840;4.382;2023-06-26T08:07:05;22.30;99.90
29207;DHT22;16247;50.840;4.382;2023-06-26T08:09:31;22.10;99.90
29207;DHT22;16247;50.840;4.382;2023-06-26T08:11:58;22.20;99.90
29207;DHT22;16247;50.840;4.382;2023-06-26T08:14:24;22.00;99.90
29207;DHT22;16247;50.840;4.382;2023-06-26T08:16:51;22.00;99.90
29207;DHT22;16247;50.840;4.382;2023-06-26T08:19:17;21.90;99.90
29207;DHT22;16247;50.840;4.382;2023-06-26T08:21:44;21.60;99.90
29207;DHT22;16247;50.840;4.382;2023-06-26T08:24:11;21.30;99.90
29207;DHT22;16247;50.840;4.382;2023-06-26T08:26:38;21.90;99.90
29207;DHT22;16247;50.840;4.382;2023-06-26T08:29:05;21.60;99.90
29207;DHT22;16247;50.840;4.382;2023-06-26T08:31:39;21.30;99.90
29207;DHT22;16247;50.840;4.382;2023-06-26T08:34:05;21.30;99.90
29207;DHT22;16247;50.840;4.382;2023-06-26T08:36:31;21.50;99.90
29207;DHT22;16247;50.840;4.382;2023-06-26T08:38:57;21.80;99.90
29207;DHT22;16247;50.840;4.382;2023-06-26T08:41:23;21.90;99.90
29207;DHT22;16247;50.840;4.382;2023-06-26T08:43:49;22.10;99.90
29207;DHT22;16247;50.840;4.382;2023-06-26T08:46:18;22.00;99.90
29207;DHT22;16247;50.840;4.382;2023-06-26T08:48:49;21.90;99.90
29207;DHT22;16247;50.840;4.382;2023-06-26T17:18:58;23.20;99.90
29207;DHT22;16247;50.840;4.382;2023-06-26T20:31:09;21.20;99.90
29207;DHT22;16247;50.840;4.382;2023-06-26T20:33:35;21.50;99.90
29207;DHT22;16247;50.840;4.382;2023-06-26T20:36:01;22.20;99.90
29207;DHT22;16247;50.840;4.382;2023-06-26T20:38:27;21.90;99.90
29207;DHT22;16247;50.840;4.382;2023-06-26T20:40:53;21.70;99.90
29207;DHT22;16247;50.840;4.382;2023-06-26T20:43:18;21.50;99.90
29207;DHT22;16247;50.840;4.382;2023-06-26T20:45:44;21.50;99.90
29207;DHT22;16247;50.840;4.382;2023-06-26T20:48:10;21.30;99.90
29207;DHT22;16247;50.840;4.382;2023-06-26T20:50:36;21.30;99.90
29207;DHT22;16247;50.840;4.382;2023-06-26T20:53:02;21.30;99.90
29207;DHT22;16247;50.840;4.382;2023-06-26T20:55:28;21.20;99.90
29207;DHT22;16247;50.840;4.382;2023-06-26T20:57:55;21.20;99.90
29207;DHT22;16247;50.840;4.382;2023-06-26T21:00:21;21.00;99.90
29207;DHT22;16247;50.840;4.382;2023-06-26T21:02:47;20.90;99.90
29207;DHT22;16247;50.840;4.382;2023-06-26T21:05:12;20.90;99.90
29207;DHT22;16247;50.840;4.382;2023-06-26T21:07:38;20.80;99.90
29207;DHT22;16247;50.840;4.382;2023-06-26T21:10:04;20.70;99.90
29207;DHT22;16247;50.840;4.382;2023-06-26T21:12:30;20.70;99.90
29207;DHT22;16247;50.840;4.382;2023-06-26T21:14:55;20.60;99.90
29207;DHT22;16247;50.840;4.382;2023-06-26T21:17:21;20.70;99.90
29207;DHT22;16247;50.840;4.382;2023-06-26T21:19:48;20.60;99.90
29207;DHT22;16247;50.840;4.382;2023-06-26T21:22:13;20.50;99.90
29207;DHT22;16247;50.840;4.382;2023-06-26T21:24:40;20.50;99.90
29207;DHT22;16247;50.840;4.382;2023-06-26T21:27:06;20.50;99.90
29207;DHT22;16247;50.840;4.382;2023-06-26T21:29:31;20.60;99.90
29207;DHT22;16247;50.840;4.382;2023-06-26T23:51:50;18.40;99.90
